Pacific Celebes — VRZN9 — position and weather

sailwx.info

Track history (hours):
 
Tides and Currents Weather Stations Pressure Air Temp Water Temp Dewpoint Dewpoint Depression Visibility Wind Speed Wind Dir Waves Ship Positions

Pacific Celebes

Last reported at 2018-Jul-20 15:45 UTC. Time now 2018-Jul-20 16:00 UTC.
Position N 37°49' W 122°30'.

Type: Ship (hazmat cat A). MMSI: 367310560.

Date/timePositionNaut miles runAvg speedWind from/ knotsBaromVisibWave heightAir tempDewpointWater temp
2018-Jul-20 15:45N 37°49' W 122°30'411.4
2018-Jul-20 15:22N 37°49' W 122°24'0 0.3
2018-Jul-20 15:00N 37°49' W 122°24'1 1.1
2018-Jul-20 14:28N 37°49' W 122°25'  
2018-Jul-18 02:34N 37°49' W 122°24'1 7.9
2018-Jul-18 02:28N 37°49' W 122°25'3 1.4
2018-Jul-18 00:25N 37°49' W 122°29'3 3.8
2018-Jul-17 23:43N 37°49' W 122°26'3 1.8
2018-Jul-17 21:59N 37°49' W 122°30'3 4.5
2018-Jul-17 21:18N 37°49' W 122°26'1 0.4
2018-Jul-17 18:26N 37°49' W 122°27'1 1.8
2018-Jul-17 17:51N 37°49' W 122°26'3 1.5
2018-Jul-17 15:33N 37°49' W 122°30'119.0
2018-Jul-17 15:29N 37°49' W 122°29'3 0.1
2018-Jul-16 03:12N 37°49' W 122°24'2 9.2
2018-Jul-16 03:00N 37°49' W 122°27'2 1.0
2018-Jul-16 01:29N 37°49' W 122°29'3 6.1
2018-Jul-16 00:57N 37°49' W 122°24'4 1.6
2018-Jul-15 22:32N 37°49' W 122°29'118.0
2018-Jul-15 22:30N 37°49' W 122°29'3 2.2
2018-Jul-15 21:19N 37°49' W 122°25'5 0.9
2018-Jul-15 15:43N 37°49' W 122°31'418.4
2018-Jul-15 15:30N 37°49' W 122°27'0 0.0
2018-Jul-15 03:41N 37°49' W 122°26'2 1.0
2018-Jul-15 01:27N 37°49' W 122°29'4 3.5
2018-Jul-15 00:26N 37°49' W 122°25'4 2.1
2018-Jul-14 22:29N 37°49' W 122°30'4 2.5
2018-Jul-14 21:00N 37°49' W 122°25'4 0.7
2018-Jul-14 15:41N 37°49' W 122°30'319.0
2018-Jul-14 15:30N 37°49' W 122°26'0 0.0
2018-Jul-14 02:19N 37°49' W 122°26'3 1.4
2018-Jul-14 00:34N 37°49' W 122°29'111.3
2018-Jul-14 00:29N 37°49' W 122°28'3 2.8
2018-Jul-13 23:32N 37°49' W 122°24'0 0.9
2018-Jul-13 23:28N 37°49' W 122°24'4 1.9
2018-Jul-13 21:27N 37°49' W 122°29'3 2.3
2018-Jul-13 20:18N 37°49' W 122°26'3 1.5
2018-Jul-13 18:32N 37°49' W 122°29'010.6
2018-Jul-13 18:29N 37°49' W 122°29'3 5.0
2018-Jul-13 17:47N 37°49' W 122°24'1 4.3
2018-Jul-13 17:30N 37°49' W 122°26'5 3.8
2018-Jul-13 16:07N 37°48' W 122°33'2 4.8
2018-Jul-13 15:39N 37°49' W 122°30'1 6.9
2018-Jul-13 15:30N 37°49' W 122°29'3 4.6
2018-Jul-13 14:52N 37°49' W 122°25'1 0.0
2018-Jul-13 02:15N 37°49' W 122°26'3 1.5
2018-Jul-13 00:26N 37°49' W 122°29'3 2.8
2018-Jul-12 23:23N 37°49' W 122°26'3 3.0
2018-Jul-12 22:26N 37°49' W 122°29'3 2.7
2018-Jul-12 21:26N 37°50' W 122°26'1 1.3
2018-Jul-12 20:20N 37°49' W 122°24'2 5.8
2018-Jul-12 20:00N 37°51' W 122°24'1 1.1
2018-Jul-12 19:30N 37°51' W 122°24'2 3.2
2018-Jul-12 18:58N 37°51' W 122°26'2 3.7
2018-Jul-12 18:26N 37°49' W 122°28'2 2.8
2018-Jul-12 17:34N 37°49' W 122°24'1 5.6
2018-Jul-12 17:22N 37°49' W 122°26'2 5.9
2018-Jul-12 17:00N 37°49' W 122°29'1 1.5
2018-Jul-12 16:14N 37°49' W 122°30'1 1.9
2018-Jul-12 15:46N 37°49' W 122°29'3 2.4
2018-Jul-12 14:35N 37°49' W 122°25'1 6.2
2018-Jul-12 14:29N 37°49' W 122°24'  
Track history (hours):
 
Tides and Currents Weather Stations Pressure Air Temp Water Temp Dewpoint Dewpoint Depression Visibility Wind Speed Wind Dir Waves Ship Positions

Pacific Celebes

Last reported at 2018-Jul-20 15:45 UTC. Time now 2018-Jul-20 16:00 UTC.
Position N 37°49' W 122°30'.

Type: Ship (hazmat cat A). MMSI: 367310560.

Date/timePositionNaut miles runAvg speedWind from/ knotsBaromVisibWave heightAir tempDewpointWater temp
2018-Jul-20 15:45N 37°49' W 122°30'411.4
2018-Jul-20 15:22N 37°49' W 122°24'0 0.3
2018-Jul-20 15:00N 37°49' W 122°24'1 1.1
2018-Jul-20 14:28N 37°49' W 122°25'  
2018-Jul-18 02:34N 37°49' W 122°24'1 7.9
2018-Jul-18 02:28N 37°49' W 122°25'3 1.4
2018-Jul-18 00:25N 37°49' W 122°29'3 3.8
2018-Jul-17 23:43N 37°49' W 122°26'3 1.8
2018-Jul-17 21:59N 37°49' W 122°30'3 4.5
2018-Jul-17 21:18N 37°49' W 122°26'1 0.4
2018-Jul-17 18:26N 37°49' W 122°27'1 1.8
2018-Jul-17 17:51N 37°49' W 122°26'3 1.5
2018-Jul-17 15:33N 37°49' W 122°30'119.0
2018-Jul-17 15:29N 37°49' W 122°29'3 0.1
2018-Jul-16 03:12N 37°49' W 122°24'2 9.2
2018-Jul-16 03:00N 37°49' W 122°27'2 1.0
2018-Jul-16 01:29N 37°49' W 122°29'3 6.1
2018-Jul-16 00:57N 37°49' W 122°24'4 1.6
2018-Jul-15 22:32N 37°49' W 122°29'118.0
2018-Jul-15 22:30N 37°49' W 122°29'3 2.2
2018-Jul-15 21:19N 37°49' W 122°25'5 0.9
2018-Jul-15 15:43N 37°49' W 122°31'418.4
2018-Jul-15 15:30N 37°49' W 122°27'0 0.0
2018-Jul-15 03:41N 37°49' W 122°26'2 1.0
2018-Jul-15 01:27N 37°49' W 122°29'4 3.5
2018-Jul-15 00:26N 37°49' W 122°25'4 2.1
2018-Jul-14 22:29N 37°49' W 122°30'4 2.5
2018-Jul-14 21:00N 37°49' W 122°25'4 0.7
2018-Jul-14 15:41N 37°49' W 122°30'319.0
2018-Jul-14 15:30N 37°49' W 122°26'0 0.0
2018-Jul-14 02:19N 37°49' W 122°26'3 1.4
2018-Jul-14 00:34N 37°49' W 122°29'111.3
2018-Jul-14 00:29N 37°49' W 122°28'3 2.8
2018-Jul-13 23:32N 37°49' W 122°24'0 0.9
2018-Jul-13 23:28N 37°49' W 122°24'4 1.9
2018-Jul-13 21:27N 37°49' W 122°29'3 2.3
2018-Jul-13 20:18N 37°49' W 122°26'3 1.5
2018-Jul-13 18:32N 37°49' W 122°29'010.6
2018-Jul-13 18:29N 37°49' W 122°29'3 5.0
2018-Jul-13 17:47N 37°49' W 122°24'1 4.3
2018-Jul-13 17:30N 37°49' W 122°26'5 3.8
2018-Jul-13 16:07N 37°48' W 122°33'2 4.8
2018-Jul-13 15:39N 37°49' W 122°30'1 6.9
2018-Jul-13 15:30N 37°49' W 122°29'3 4.6
2018-Jul-13 14:52N 37°49' W 122°25'1 0.0
2018-Jul-13 02:15N 37°49' W 122°26'3 1.5
2018-Jul-13 00:26N 37°49' W 122°29'3 2.8
2018-Jul-12 23:23N 37°49' W 122°26'3 3.0
2018-Jul-12 22:26N 37°49' W 122°29'3 2.7
2018-Jul-12 21:26N 37°50' W 122°26'1 1.3
2018-Jul-12 20:20N 37°49' W 122°24'2 5.8
2018-Jul-12 20:00N 37°51' W 122°24'1 1.1
2018-Jul-12 19:30N 37°51' W 122°24'2 3.2
2018-Jul-12 18:58N 37°51' W 122°26'2 3.7
2018-Jul-12 18:26N 37°49' W 122°28'2 2.8
2018-Jul-12 17:34N 37°49' W 122°24'1 5.6
2018-Jul-12 17:22N 37°49' W 122°26'2 5.9
2018-Jul-12 17:00N 37°49' W 122°29'1 1.5
2018-Jul-12 16:14N 37°49' W 122°30'1 1.9
2018-Jul-12 15:46N 37°49' W 122°29'3 2.4
2018-Jul-12 14:35N 37°49' W 122°25'1 6.2
2018-Jul-12 14:29N 37°49' W 122°24'  

Dump ship's entire track history